ADDS METAR Data INFO
IDs: Format: Raw Decoded Include TAF

Data at: 0716 UTC 24 Jun 2018

KPPF 231752Z AUTO 24006KT 10SM CLR 29/19 A2983 RMK AO2 SLP093 T02890189 10289 20189 50002
KPPF 231652Z AUTO VRB03KT 10SM CLR 27/19 A2984 RMK AO2 SLP094 T02720194
KPPF 231552Z AUTO 16003KT 10SM CLR 25/19 A2983 RMK AO2 SLP091 T02500194
KPPF 231452Z AUTO 19004KT 10SM CLR 23/19 A2983 RMK AO2 SLP092 T02330194 51008
KPPF 231352Z AUTO 05003KT 10SM CLR 22/19 A2982 RMK AO2 SLP091 T02170194
KPPF 231252Z AUTO VRB03KT 10SM CLR 20/19 A2981 RMK AO2 SLP085 T02000189
KPPF 231152Z AUTO 02005KT 10SM CLR 19/18 A2980 RMK AO2 SLP082 60001 70003 T01890183 10200 20183 51011
KPPF 231052Z AUTO 03004KT 10SM CLR 18/18 A2980 RMK AO2 SLP082 T01830183
KPPF 230952Z AUTO 35010KT 10SM CLR 19/18 A2981 RMK AO2 SLP083 T01890183
KPPF 230852Z AUTO 00000KT 10SM CLR 18/18 A2977 RMK AO2 SLP071 60001 T01830183 55033
KPPF 230752Z AUTO 00000KT 10SM CLR 19/18 A2976 RMK AO2 SLP070 T01940183
KPPF 230652Z AUTO 12008KT 080V160 10SM FEW075 FEW095 SCT120 19/19 A2969 RMK AO2 RAE02B19E41 PRESFR SLP043 P0001 T01940189
KPPF 230552Z AUTO 12003KT 10SM -RA FEW033 SCT048 BKN100 19/19 A2987 RMK AO2 PRESFR SLP105 P0002 60002 T01940189 10272 20189 402830167 50020
KPPF 230452Z AUTO 33009KT 10SM -RA FEW055 BKN110 21/19 A2991 RMK AO2 LTG DSNT SW RAB30 SLP117 P0000 T02060189
KPPF 230440Z AUTO 33009KT 10SM VCTS -RA FEW055 SCT070 BKN090 21/19 A2992 RMK AO2 LTG DSNT SW AND W RAB30 P0000 T02110189
KPPF 230352Z AUTO 34011G19KT 10SM SCT047 BKN060 BKN120 22/18 A2991 RMK AO2 LTG DSNT W AND NW SLP118 T02220183
KPPF 230252Z AUTO 00000KT 10SM CLR 21/18 A2981 RMK AO2 SLP085 T02060178 53015
KPPF 230152Z AUTO 04003KT 10SM CLR 22/18 A2978 RMK AO2 SLP076 T02170178
KPPF 230052Z AUTO 00000KT 10SM CLR 26/18 A2977 RMK AO2 SLP070 T02610178
KPPF 222352Z AUTO 01004KT 10SM CLR 27/17 A2976 RMK AO2 SLP069 T02720172 10283 20250 56022
KPPF 222252Z AUTO 00000KT 10SM CLR 28/17 A2977 RMK AO2 SLP073 T02780172
KPPF 222152Z AUTO 36006KT 10SM CLR 28/17 A2980 RMK AO2 SLP082 T02830172
KPPF 222052Z AUTO 34008KT 10SM FEW041 28/18 A2983 RMK AO2 SLP093 T02830178 58019
KPPF 221952Z AUTO VRB04KT 10SM BKN038 26/17 A2985 RMK AO2 SLP098 T02610172